Time;durP1;ratioP1;P1;durP2;ratioP2;P2;SDS_P1;SDS_P2;PMS_P1;PMS_P2;Temp;Humidity;BMP_temperature;BMP_pressure;BME280_temperature;BME280_humidity;BME280_pressure;Samples;Min_cycle;Max_cycle;Signal;HPM_P1;HPM_P2
2022/11/10 00:00:12;;;;;;;;;;;21.10;64.60;;;;;;6124356;23;20230;-64
2022/11/10 00:02:42;;;;;;;;;;;21.10;64.40;;;;;;6124917;23;20283;-65
2022/11/10 00:05:09;;;;;;;;;;;21.10;65.00;;;;;;6124371;23;19987;-65
2022/11/10 00:07:36;;;;;;;;;;;21.20;66.30;;;;;;6123904;23;19975;-65
2022/11/10 00:10:03;;;;;;;;;;;21.30;65.80;;;;;;6124085;23;19909;-65
2022/11/10 00:12:30;;;;;;;;;;;21.30;64.80;;;;;;6124507;23;19940;-65
2022/11/10 00:17:41;;;;;;;;;;;21.30;64.60;;;;;;6124343;23;20291;-66
2022/11/10 00:20:08;;;;;;;;;;;21.30;63.50;;;;;;6124250;23;19917;-65
2022/11/10 00:22:35;;;;;;;;;;;21.30;63.00;;;;;;6124748;23;19917;-65
2022/11/10 00:25:02;;;;;;;;;;;21.30;62.40;;;;;;6123839;23;19912;-66
2022/11/10 00:27:28;;;;;;;;;;;21.30;62.50;;;;;;6124745;23;19952;-65
2022/11/10 00:29:55;;;;;;;;;;;21.30;61.00;;;;;;6125641;23;19916;-65
2022/11/10 07:58:39;;;;;;;;;;;20.30;68.60;;;;;;6105367;23;19993;-63
2022/11/10 08:01:05;;;;;;;;;;;20.20;68.30;;;;;;6092695;23;19932;-64
2022/11/10 08:03:32;;;;;;;;;;;20.30;68.70;;;;;;6120939;23;19932;-64
2022/11/10 08:05:58;;;;;;;;;;;20.20;68.40;;;;;;6121935;23;19913;-65
2022/11/10 08:08:25;;;;;;;;;;;20.20;68.30;;;;;;6122157;23;20024;-64
2022/11/10 08:10:52;;;;;;;;;;;20.20;68.70;;;;;;6122140;23;19927;-65
2022/11/10 08:13:18;;;;;;;;;;;20.20;68.80;;;;;;6121942;23;19964;-64
2022/11/10 08:15:45;;;;;;;;;;;20.20;68.40;;;;;;6122110;23;19947;-64
2022/11/10 08:18:14;;;;;;;;;;;20.10;68.10;;;;;;6121723;23;19909;-63
2022/11/10 08:20:41;;;;;;;;;;;20.10;68.30;;;;;;6121606;23;19995;-63
2022/11/10 08:23:08;;;;;;;;;;;20.10;68.70;;;;;;6121828;23;20276;-65
2022/11/10 08:25:35;;;;;;;;;;;20.10;68.50;;;;;;6095815;23;20320;-65
2022/11/10 08:28:02;;;;;;;;;;;20.10;68.60;;;;;;6095984;23;20293;-64
2022/11/10 08:30:29;;;;;;;;;;;20.10;68.40;;;;;;6096222;23;19928;-64
2022/11/10 08:32:56;;;;;;;;;;;20.10;68.20;;;;;;6122222;23;19912;-64
2022/11/10 08:35:26;;;;;;;;;;;20.00;68.30;;;;;;6096496;23;19912;-64
2022/11/10 08:37:53;;;;;;;;;;;20.10;68.40;;;;;;6095763;23;20371;-64
2022/11/10 08:40:20;;;;;;;;;;;20.10;68.70;;;;;;6122348;23;19988;-63
2022/11/10 08:42:47;;;;;;;;;;;20.00;68.10;;;;;;6121698;23;19912;-63
2022/11/10 08:45:13;;;;;;;;;;;20.00;68.40;;;;;;6122146;23;19905;-63
2022/11/10 08:47:40;;;;;;;;;;;20.00;68.50;;;;;;6119319;23;19913;-64
2022/11/10 08:50:07;;;;;;;;;;;20.00;68.80;;;;;;6121935;23;19909;-64
2022/11/10 08:52:33;;;;;;;;;;;20.00;69.10;;;;;;6124563;23;19913;-65
2022/11/10 08:55:00;;;;;;;;;;;20.00;69.10;;;;;;6124077;23;20273;-65
2022/11/10 10:05:17;;;;;;;;;;;19.60;70.20;;;;;;6116705;23;20050;-65
2022/11/10 10:07:56;;;;;;;;;;;19.70;70.50;;;;;;6097143;23;20316;-65
2022/11/10 10:10:35;;;;;;;;;;;19.60;70.70;;;;;;6121449;23;19909;-63
2022/11/10 10:13:02;;;;;;;;;;;19.60;70.40;;;;;;6096153;23;19916;-63
2022/11/10 10:15:37;;;;;;;;;;;19.60;70.60;;;;;;6123386;23;19942;-63
2022/11/10 10:18:07;;;;;;;;;;;19.50;70.00;;;;;;6122957;23;19983;-64
2022/11/10 10:20:34;;;;;;;;;;;19.50;70.10;;;;;;6122573;23;20341;-64
2022/11/10 10:23:09;;;;;;;;;;;19.50;70.00;;;;;;6122731;23;19905;-64
2022/11/10 10:25:36;;;;;;;;;;;19.60;69.40;;;;;;6122677;23;20583;-62
2022/11/10 10:28:20;;;;;;;;;;;19.60;69.60;;;;;;6095393;23;19983;-65
2022/11/10 10:30:47;;;;;;;;;;;19.50;69.10;;;;;;6122662;23;19909;-65
2022/11/10 10:33:15;;;;;;;;;;;19.60;68.70;;;;;;6122484;23;19968;-65
2022/11/10 10:35:41;;;;;;;;;;;19.60;68.80;;;;;;6096682;23;19916;-64
2022/11/10 10:38:17;;;;;;;;;;;19.50;69.00;;;;;;6100160;23;19905;-64
2022/11/10 10:40:44;;;;;;;;;;;19.60;69.10;;;;;;6125626;23;20000;-64
2022/11/10 10:43:11;;;;;;;;;;;19.50;69.20;;;;;;6099757;23;20505;-64
2022/11/10 10:45:41;;;;;;;;;;;19.50;69.60;;;;;;6126424;23;19967;-65
2022/11/10 10:48:27;;;;;;;;;;;19.50;69.80;;;;;;6099733;23;20372;-64
2022/11/10 10:50:53;;;;;;;;;;;19.50;69.90;;;;;;6100305;23;19905;-64
2022/11/10 10:53:21;;;;;;;;;;;19.50;70.10;;;;;;6099583;23;20040;-64
2022/11/10 10:56:01;;;;;;;;;;;19.50;70.30;;;;;;6126157;23;20317;-65
2022/11/10 10:58:28;;;;;;;;;;;19.50;70.40;;;;;;6076146;23;20314;-64
2022/11/10 11:01:04;;;;;;;;;;;19.50;70.50;;;;;;6126003;23;20236;-64
2022/11/10 14:54:24;;;;;;;;;;;18.10;75.50;;;;;;6091808;23;19924;-65
2022/11/10 14:56:51;;;;;;;;;;;18.10;75.50;;;;;;6094930;23;19920;-65
2022/11/10 14:59:18;;;;;;;;;;;18.00;75.60;;;;;;6096198;23;20214;-64
2022/11/10 15:01:57;;;;;;;;;;;18.00;75.60;;;;;;6096624;23;19976;-64
2022/11/10 15:04:28;;;;;;;;;;;18.00;75.60;;;;;;6095042;23;19905;-64
2022/11/10 15:06:55;;;;;;;;;;;18.00;75.60;;;;;;6095896;23;19921;-64
2022/11/10 15:09:23;;;;;;;;;;;18.00;75.80;;;;;;6094931;23;19913;-64
2022/11/10 15:11:50;;;;;;;;;;;17.90;76.00;;;;;;6095143;23;19905;-64
2022/11/10 15:14:32;;;;;;;;;;;17.90;76.30;;;;;;6096931;23;19905;-64
2022/11/10 15:17:03;;;;;;;;;;;17.90;76.20;;;;;;6096060;23;19906;-65
2022/11/10 15:19:31;;;;;;;;;;;17.90;76.30;;;;;;6095490;23;20332;-65
2022/11/10 15:22:04;;;;;;;;;;;17.80;76.30;;;;;;6094563;23;19952;-64
2022/11/10 15:24:31;;;;;;;;;;;17.80;76.60;;;;;;6096452;23;19925;-64
2022/11/10 15:26:57;;;;;;;;;;;17.70;76.60;;;;;;6070908;23;19995;-65
2022/11/10 15:29:24;;;;;;;;;;;17.70;76.80;;;;;;6094775;23;19957;-64
2022/11/10 15:31:51;;;;;;;;;;;17.70;77.00;;;;;;6094864;23;19961;-65
2022/11/10 15:34:28;;;;;;;;;;;17.70;77.10;;;;;;6094837;23;19910;-64
2022/11/10 15:37:30;;;;;;;;;;;17.70;77.30;;;;;;6095907;23;20343;-65
2022/11/10 15:40:14;;;;;;;;;;;17.70;77.30;;;;;;6007172;23;19914;-64
2022/11/10 15:42:41;;;;;;;;;;;17.70;77.10;;;;;;6089419;23;19905;-65
2022/11/10 15:45:08;;;;;;;;;;;17.70;77.30;;;;;;6096156;23;19932;-64
2022/11/10 15:47:34;;;;;;;;;;;17.70;77.40;;;;;;6096053;23;19905;-64
2022/11/10 15:50:01;;;;;;;;;;;17.70;77.70;;;;;;6095931;23;19988;-64
2022/11/10 15:52:27;;;;;;;;;;;17.70;78.00;;;;;;6096596;23;19916;-64
2022/11/10 15:54:54;;;;;;;;;;;17.60;78.30;;;;;;6115122;23;19925;-65
2022/11/10 15:57:21;;;;;;;;;;;17.60;78.60;;;;;;6125453;23;19911;-64
2022/11/10 15:59:47;;;;;;;;;;;17.70;78.90;;;;;;6124986;23;20000;-64
2022/11/10 16:02:18;;;;;;;;;;;17.60;79.10;;;;;;6124988;23;19905;-64
2022/11/10 16:04:44;;;;;;;;;;;17.60;79.20;;;;;;6125324;23;19977;-65
2022/11/10 16:07:11;;;;;;;;;;;17.60;79.60;;;;;;6099743;23;19905;-64
2022/11/10 16:09:38;;;;;;;;;;;17.50;79.30;;;;;;6125054;23;19952;-64
2022/11/10 16:12:04;;;;;;;;;;;17.50;79.50;;;;;;6124856;23;19909;-64
2022/11/10 16:14:31;;;;;;;;;;;17.40;79.70;;;;;;6125370;23;19905;-64
2022/11/10 16:16:57;;;;;;;;;;;17.40;79.80;;;;;;6125352;23;20244;-64
2022/11/10 16:19:24;;;;;;;;;;;17.30;79.80;;;;;;6125033;23;19948;-64
2022/11/10 16:21:51;;;;;;;;;;;17.30;79.80;;;;;;6125370;23;19917;-64
2022/11/10 16:24:17;;;;;;;;;;;17.30;79.50;;;;;;6125431;23;19944;-64
2022/11/10 16:26:44;;;;;;;;;;;17.30;79.10;;;;;;6124867;23;19905;-64
2022/11/10 16:29:12;;;;;;;;;;;17.30;79.10;;;;;;6124759;23;19921;-64
2022/11/10 16:31:39;;;;;;;;;;;17.30;79.10;;;;;;6125332;23;20341;-64
2022/11/10 16:34:08;;;;;;;;;;;17.30;78.90;;;;;;6125266;23;19960;-64
2022/11/10 16:36:35;;;;;;;;;;;17.30;78.80;;;;;;6125289;23;19905;-64
2022/11/10 16:39:02;;;;;;;;;;;17.30;78.60;;;;;;6121992;23;19932;-63
2022/11/10 16:41:29;;;;;;;;;;;17.30;78.60;;;;;;6098640;23;19909;-64
2022/11/10 16:43:55;;;;;;;;;;;17.30;78.60;;;;;;6124837;23;19916;-63
2022/11/10 16:46:23;;;;;;;;;;;17.30;78.50;;;;;;6124836;23;19931;-64
2022/11/10 16:48:50;;;;;;;;;;;17.20;78.80;;;;;;6125362;23;19913;-64
2022/11/10 16:51:17;;;;;;;;;;;17.20;79.00;;;;;;6099241;23;19905;-64
2022/11/10 16:53:43;;;;;;;;;;;17.10;79.00;;;;;;6124768;23;19913;-64
2022/11/10 16:56:14;;;;;;;;;;;17.10;79.10;;;;;;6125018;23;19909;-64
2022/11/10 16:58:40;;;;;;;;;;;17.10;79.20;;;;;;6099113;23;19909;-64
2022/11/10 17:01:09;;;;;;;;;;;17.10;79.20;;;;;;6125389;23;19979;-64
2022/11/10 17:03:36;;;;;;;;;;;17.10;79.30;;;;;;6098063;23;19984;-64
2022/11/10 17:06:04;;;;;;;;;;;17.10;79.30;;;;;;6098344;23;19909;-64
2022/11/10 17:08:31;;;;;;;;;;;17.10;79.40;;;;;;6123228;23;19972;-65
2022/11/10 17:10:57;;;;;;;;;;;17.00;79.40;;;;;;6124544;23;19909;-64
2022/11/10 17:13:24;;;;;;;;;;;17.00;79.60;;;;;;6125194;23;20405;-64
2022/11/10 17:15:57;;;;;;;;;;;17.00;79.90;;;;;;6099855;23;19909;-65
2022/11/10 17:18:23;;;;;;;;;;;17.00;80.00;;;;;;6126874;23;19909;-64
2022/11/10 17:20:51;;;;;;;;;;;16.90;79.70;;;;;;6124278;23;20004;-64
2022/11/10 17:23:18;;;;;;;;;;;16.90;79.90;;;;;;6075845;23;19909;-64
2022/11/10 17:25:45;;;;;;;;;;;16.90;80.10;;;;;;6126192;23;19952;-64
2022/11/10 17:28:12;;;;;;;;;;;16.90;80.00;;;;;;6125780;23;19932;-64
2022/11/10 17:30:39;;;;;;;;;;;16.90;80.10;;;;;;6126046;23;19909;-64
2022/11/10 17:33:06;;;;;;;;;;;16.90;80.10;;;;;;6125771;23;19943;-64
2022/11/10 17:35:34;;;;;;;;;;;17.00;79.90;;;;;;6100217;23;19912;-64
2022/11/10 17:38:00;;;;;;;;;;;16.90;80.10;;;;;;6100810;23;19949;-64
2022/11/10 17:40:27;;;;;;;;;;;16.80;80.20;;;;;;6100146;23;19940;-64
2022/11/10 17:42:54;;;;;;;;;;;16.80;80.30;;;;;;6100771;23;19912;-63
2022/11/10 17:45:21;;;;;;;;;;;16.80;80.20;;;;;;6126636;23;19905;-64
2022/11/10 17:47:48;;;;;;;;;;;16.80;80.40;;;;;;6100320;23;19905;-64
2022/11/10 17:50:15;;;;;;;;;;;16.80;80.60;;;;;;6099518;23;19908;-64
2022/11/10 17:52:42;;;;;;;;;;;16.80;80.20;;;;;;6123669;23;20292;-63
2022/11/10 17:55:19;;;;;;;;;;;16.70;80.40;;;;;;6074800;23;20339;-64
2022/11/10 17:57:45;;;;;;;;;;;16.80;80.60;;;;;;6099864;23;19939;-64
2022/11/10 18:00:12;;;;;;;;;;;16.70;80.60;;;;;;6098392;23;19913;-64
2022/11/10 18:02:39;;;;;;;;;;;16.70;80.90;;;;;;6125575;23;19964;-64
2022/11/10 18:05:06;;;;;;;;;;;16.70;81.10;;;;;;6124267;23;20324;-64
2022/11/10 18:07:32;;;;;;;;;;;16.70;81.50;;;;;;6124839;23;19952;-64
2022/11/10 18:09:59;;;;;;;;;;;16.70;81.70;;;;;;6125674;23;19905;-64
2022/11/10 18:12:26;;;;;;;;;;;16.70;81.90;;;;;;6125186;23;20404;-64
2022/11/10 18:14:52;;;;;;;;;;;16.70;81.80;;;;;;6125273;23;19955;-65
2022/11/10 18:17:19;;;;;;;;;;;16.70;81.50;;;;;;6124696;23;20022;-64
2022/11/10 18:19:45;;;;;;;;;;;16.70;81.80;;;;;;6125036;23;19917;-64
2022/11/10 18:22:12;;;;;;;;;;;16.70;81.30;;;;;;6125625;23;19992;-64
2022/11/10 18:24:38;;;;;;;;;;;16.50;81.40;;;;;;6124688;23;19916;-64
2022/11/10 18:27:05;;;;;;;;;;;16.50;81.30;;;;;;6125340;23;19980;-64
2022/11/10 18:29:32;;;;;;;;;;;16.50;81.20;;;;;;6124034;23;19905;-64
2022/11/10 18:31:58;;;;;;;;;;;16.60;81.20;;;;;;6124821;23;20306;-64
2022/11/10 18:34:25;;;;;;;;;;;16.50;81.30;;;;;;6124921;23;19905;-63
2022/11/10 18:36:51;;;;;;;;;;;16.50;81.20;;;;;;6124827;23;19905;-64
2022/11/10 18:39:18;;;;;;;;;;;16.50;81.10;;;;;;6124846;23;20000;-64
2022/11/10 18:41:47;;;;;;;;;;;16.50;80.70;;;;;;6125067;23;19905;-64
2022/11/10 18:44:17;;;;;;;;;;;16.50;80.70;;;;;;6125073;23;19905;-64
2022/11/10 18:46:44;;;;;;;;;;;16.50;80.40;;;;;;6125070;23;19984;-64
2022/11/10 18:49:11;;;;;;;;;;;16.50;80.20;;;;;;6124694;23;20320;-64
2022/11/10 18:51:37;;;;;;;;;;;16.50;80.00;;;;;;6099459;23;20276;-64
2022/11/10 18:54:04;;;;;;;;;;;16.50;80.00;;;;;;6124841;23;19905;-64
2022/11/10 18:56:31;;;;;;;;;;;16.50;79.80;;;;;;6124587;23;19980;-64
2022/11/10 18:58:57;;;;;;;;;;;16.50;79.50;;;;;;6125155;23;19905;-64
2022/11/10 19:01:24;;;;;;;;;;;16.50;79.40;;;;;;6125726;23;19905;-64
2022/11/10 19:03:51;;;;;;;;;;;16.50;79.30;;;;;;6125748;23;19968;-64
2022/11/10 19:06:17;;;;;;;;;;;16.60;79.00;;;;;;6124950;23;20320;-64
2022/11/10 19:08:44;;;;;;;;;;;16.70;78.80;;;;;;6124829;23;20280;-64
2022/11/10 19:11:12;;;;;;;;;;;16.70;78.50;;;;;;6124614;23;20232;-64
2022/11/10 19:13:38;;;;;;;;;;;16.70;78.10;;;;;;6124414;23;19916;-64
2022/11/10 19:16:09;;;;;;;;;;;16.80;78.10;;;;;;6124308;23;19916;-64
2022/11/10 19:18:38;;;;;;;;;;;16.90;78.10;;;;;;6124749;23;19905;-64
2022/11/10 19:21:05;;;;;;;;;;;17.00;78.10;;;;;;6125007;23;19921;-64
2022/11/10 19:23:31;;;;;;;;;;;17.00;78.50;;;;;;6124044;23;19955;-63
2022/11/10 19:25:59;;;;;;;;;;;17.10;78.50;;;;;;6124891;23;20050;-62
2022/11/10 19:28:29;;;;;;;;;;;17.10;78.30;;;;;;6098658;23;19905;-63
2022/11/10 19:31:00;;;;;;;;;;;17.20;78.10;;;;;;6098713;23;20355;-62
2022/11/10 19:33:30;;;;;;;;;;;17.20;78.10;;;;;;6124951;23;19984;-62
2022/11/10 19:36:00;;;;;;;;;;;17.30;77.80;;;;;;6124265;23;20317;-63
2022/11/10 19:38:27;;;;;;;;;;;17.30;77.80;;;;;;6124230;23;19912;-62
2022/11/10 19:40:54;;;;;;;;;;;17.40;77.70;;;;;;6124746;23;19988;-62
2022/11/10 19:43:20;;;;;;;;;;;17.50;77.60;;;;;;6124743;23;19920;-63
2022/11/10 19:45:47;;;;;;;;;;;17.50;77.80;;;;;;6124118;23;19976;-62
2022/11/10 19:48:14;;;;;;;;;;;17.50;77.90;;;;;;6124381;23;20230;-63
2022/11/10 19:50:40;;;;;;;;;;;17.60;77.90;;;;;;6124772;23;19905;-63
2022/11/10 19:53:07;;;;;;;;;;;17.60;77.80;;;;;;6124649;23;19954;-63
2022/11/10 19:55:34;;;;;;;;;;;17.60;77.20;;;;;;6124179;23;20225;-63
2022/11/10 19:58:01;;;;;;;;;;;17.60;76.40;;;;;;6123873;23;19905;-62
2022/11/10 20:00:27;;;;;;;;;;;17.70;75.10;;;;;;6124368;23;19913;-63
2022/11/10 20:02:54;;;;;;;;;;;17.70;74.90;;;;;;6123982;23;19972;-65
2022/11/10 20:05:21;;;;;;;;;;;17.70;73.70;;;;;;6124987;23;19943;-62
2022/11/10 20:10:32;;;;;;;;;;;17.90;74.00;;;;;;6123031;23;19916;-62
2022/11/10 20:12:58;;;;;;;;;;;18.00;73.80;;;;;;6124899;23;19984;-62
2022/11/10 20:15:25;;;;;;;;;;;18.00;73.70;;;;;;6123644;23;19909;-62
2022/11/10 20:17:52;;;;;;;;;;;18.10;72.70;;;;;;6124477;23;19905;-64
2022/11/10 20:20:19;;;;;;;;;;;18.10;72.50;;;;;;6124515;23;19921;-62
2022/11/10 20:22:45;;;;;;;;;;;18.20;73.20;;;;;;6123668;23;19905;-62
2022/11/10 20:25:12;;;;;;;;;;;18.30;72.50;;;;;;6124904;23;19916;-62
2022/11/10 20:27:38;;;;;;;;;;;18.30;72.20;;;;;;6124421;23;19917;-62
2022/11/10 20:30:05;;;;;;;;;;;18.40;72.90;;;;;;6124792;23;19905;-62
2022/11/10 20:32:32;;;;;;;;;;;18.40;72.30;;;;;;6098810;23;19905;-62
2022/11/10 20:34:59;;;;;;;;;;;18.50;72.70;;;;;;6123535;23;19932;-62
2022/11/10 20:37:26;;;;;;;;;;;18.50;71.50;;;;;;6123585;23;20301;-62
2022/11/10 20:39:52;;;;;;;;;;;18.50;70.00;;;;;;6124023;23;19913;-62
2022/11/10 20:42:19;;;;;;;;;;;18.60;70.20;;;;;;6123286;23;20416;-61
2022/11/10 20:44:45;;;;;;;;;;;18.70;69.90;;;;;;6123908;23;19909;-65
2022/11/10 20:47:12;;;;;;;;;;;18.80;70.70;;;;;;6125612;23;19905;-62
2022/11/10 20:49:39;;;;;;;;;;;18.80;70.40;;;;;;6126131;23;19909;-63
2022/11/10 20:52:05;;;;;;;;;;;18.90;68.70;;;;;;6126127;23;19928;-62
2022/11/10 20:54:32;;;;;;;;;;;19.00;68.50;;;;;;6125701;23;19912;-63
2022/11/10 20:56:58;;;;;;;;;;;19.00;68.30;;;;;;6126333;23;19940;-62
2022/11/10 20:59:25;;;;;;;;;;;19.20;69.00;;;;;;6126652;23;19960;-64
2022/11/10 21:01:51;;;;;;;;;;;19.20;68.40;;;;;;6126953;23;19905;-65
2022/11/10 21:04:18;;;;;;;;;;;19.30;68.50;;;;;;6126795;23;20292;-62
2022/11/10 21:06:45;;;;;;;;;;;19.40;67.70;;;;;;6126653;23;20332;-62
2022/11/10 21:09:11;;;;;;;;;;;19.50;65.50;;;;;;6126840;23;19959;-62
2022/11/10 21:14:23;;;;;;;;;;;19.60;66.30;;;;;;6105306;23;20248;-62
2022/11/10 21:16:50;;;;;;;;;;;19.60;66.90;;;;;;6126814;23;19909;-62
2022/11/10 21:19:16;;;;;;;;;;;19.70;66.60;;;;;;6126275;23;20332;-64
2022/11/10 21:21:43;;;;;;;;;;;19.70;66.20;;;;;;6126986;23;19943;-62
2022/11/10 21:24:10;;;;;;;;;;;19.70;66.50;;;;;;6127044;23;20327;-63
2022/11/10 21:26:36;;;;;;;;;;;19.80;65.90;;;;;;6100773;23;19905;-62
2022/11/10 21:29:03;;;;;;;;;;;19.90;66.30;;;;;;6126318;23;19963;-62
2022/11/10 21:31:30;;;;;;;;;;;20.00;65.00;;;;;;6126473;23;19964;-62
